createdAt,value
2018-02-22T00:00:33.525Z,56.00
2018-02-22T00:03:01.353Z,56.30
2018-02-22T00:05:28.948Z,65.80
2018-02-22T00:07:56.586Z,45.17
2018-02-22T00:10:24.345Z,58.63
2018-02-22T00:12:52.158Z,60.90
2018-02-22T00:15:19.901Z,51.30
2018-02-22T00:17:47.606Z,56.57
2018-02-22T00:20:15.198Z,59.87
2018-02-22T00:22:42.959Z,66.37
2018-02-22T00:25:10.549Z,52.40
2018-02-22T00:27:38.151Z,60.57
2018-02-22T00:30:05.869Z,54.00
2018-02-22T00:32:33.473Z,52.73
2018-02-22T00:35:01.235Z,56.20
2018-02-22T00:37:29.114Z,60.23
2018-02-22T00:39:56.785Z,62.17
2018-02-22T00:42:24.444Z,45.27
2018-02-22T00:44:52.139Z,31.20
2018-02-22T00:47:19.756Z,51.20
2018-02-22T00:49:47.401Z,58.57
2018-02-22T00:52:15.050Z,60.40
2018-02-22T00:54:42.839Z,59.70
2018-02-22T00:57:10.675Z,52.60
2018-02-22T00:59:38.386Z,44.30
2018-02-22T01:02:05.996Z,45.23
2018-02-22T01:04:33.723Z,63.17
2018-02-22T01:07:01.413Z,42.10
2018-02-22T01:09:29.202Z,51.33
2018-02-22T01:11:56.976Z,44.43
2018-02-22T01:14:24.628Z,56.67
2018-02-22T01:16:52.330Z,59.70
2018-02-22T01:19:20.112Z,60.17
2018-02-22T01:21:47.839Z,55.83
2018-02-22T01:24:15.459Z,68.83
2018-02-22T01:26:43.093Z,55.67
2018-02-22T01:29:10.912Z,40.53
2018-02-22T01:31:38.657Z,55.83
2018-02-22T01:34:06.266Z,47.03
2018-02-22T01:36:34.142Z,53.30
2018-02-22T01:39:01.880Z,60.77
2018-02-22T01:41:29.705Z,56.33
2018-02-22T01:43:57.339Z,41.63
2018-02-22T01:46:25.018Z,56.93
2018-02-22T01:48:52.723Z,55.67
2018-02-22T01:51:20.387Z,56.07
2018-02-22T01:53:48.071Z,46.10
2018-02-22T01:56:15.679Z,47.57
2018-02-22T01:58:43.314Z,55.47
2018-02-22T02:01:11.006Z,65.80
2018-02-22T02:03:38.740Z,41.20
2018-02-22T02:06:06.556Z,42.40
2018-02-22T02:08:34.434Z,32.10
2018-02-22T02:11:02.035Z,50.63
2018-02-22T02:13:29.675Z,54.13
2018-02-22T02:15:57.362Z,60.03
2018-02-22T02:18:25.129Z,65.03
2018-02-22T02:20:52.720Z,49.53
2018-02-22T02:23:20.385Z,66.47
2018-02-22T02:25:48.117Z,55.70
2018-02-22T02:30:48.546Z,71.27
2018-02-22T02:33:16.262Z,62.37
2018-02-22T02:35:43.911Z,43.13
2018-02-22T02:38:11.570Z,52.37
2018-02-22T02:40:39.643Z,70.33
2018-02-22T02:43:07.262Z,62.07
2018-02-22T02:45:34.867Z,73.90
2018-02-22T02:48:02.551Z,53.10
2018-02-22T02:50:30.128Z,63.63
2018-02-22T02:52:57.727Z,54.37
2018-02-22T02:55:25.387Z,52.30
2018-02-22T02:57:53.168Z,53.73
2018-02-22T03:00:20.841Z,59.67
2018-02-22T03:02:48.557Z,66.80
2018-02-22T03:05:16.143Z,60.10
2018-02-22T03:07:43.865Z,46.70
2018-02-22T03:10:11.481Z,59.17
2018-02-22T03:12:39.126Z,57.13
2018-02-22T03:15:06.709Z,60.50
2018-02-22T03:17:34.293Z,76.03
2018-02-22T03:20:01.928Z,60.83
2018-02-22T03:22:29.516Z,60.80
2018-02-22T03:24:57.172Z,71.30
2018-02-22T03:27:24.789Z,53.80
2018-02-22T03:29:52.435Z,63.33
2018-02-22T03:32:20.032Z,43.37
2018-02-22T03:34:47.635Z,57.63
2018-02-22T03:37:15.345Z,66.00
2018-02-22T03:39:43.033Z,65.27
2018-02-22T03:42:10.696Z,63.73
2018-02-22T03:44:38.299Z,71.00
2018-02-22T03:47:05.953Z,53.27
2018-02-22T03:49:33.550Z,50.07
2018-02-22T03:52:01.141Z,63.60
2018-02-22T03:54:28.805Z,40.80
2018-02-22T03:56:56.647Z,67.00
2018-02-22T03:59:24.237Z,70.17
2018-02-22T04:01:51.997Z,77.97
2018-02-22T04:04:19.593Z,60.17
2018-02-22T04:06:47.245Z,60.17
2018-02-22T04:09:14.917Z,68.97
2018-02-22T04:11:42.610Z,71.40
2018-02-22T04:14:10.279Z,77.67
2018-02-22T04:16:38.053Z,65.07
2018-02-22T04:19:05.682Z,65.90
2018-02-22T04:21:33.380Z,66.90
2018-02-22T04:24:01.083Z,73.80
2018-02-22T04:26:28.866Z,37.57
2018-02-22T04:28:56.458Z,67.23
2018-02-22T04:31:24.066Z,66.20
2018-02-22T04:33:51.785Z,58.53
2018-02-22T04:36:19.456Z,64.20
2018-02-22T04:38:47.141Z,74.07
2018-02-22T04:41:14.818Z,62.60
2018-02-22T04:43:42.411Z,41.07
2018-02-22T04:46:10.166Z,52.53
2018-02-22T04:48:38.051Z,71.13
2018-02-22T04:51:05.644Z,72.10
2018-02-22T04:53:33.283Z,77.60
2018-02-22T04:56:00.898Z,55.17
2018-02-22T04:58:29.404Z,67.30
2018-02-22T05:00:57.070Z,37.73
2018-02-22T05:03:24.705Z,68.77
2018-02-22T05:05:52.394Z,62.90
2018-02-22T05:08:20.017Z,72.10
2018-02-22T05:10:47.614Z,77.70
2018-02-22T05:13:15.282Z,81.63
2018-02-22T05:15:42.990Z,64.73
2018-02-22T05:18:10.586Z,74.63
2018-02-22T05:20:38.300Z,51.17
2018-02-22T05:23:05.890Z,72.50
2018-02-22T05:25:33.477Z,66.37
2018-02-22T05:28:01.148Z,77.93
2018-02-22T05:30:28.725Z,76.83
2018-02-22T05:32:56.304Z,59.97
2018-02-22T05:35:23.953Z,96.63
2018-02-22T05:37:51.656Z,109.37
2018-02-22T05:40:19.261Z,142.50
2018-02-22T05:42:46.881Z,121.03
2018-02-22T05:45:14.501Z,98.97
2018-02-22T05:47:42.101Z,94.00
2018-02-22T05:50:09.742Z,91.93
2018-02-22T05:52:37.326Z,73.43
2018-02-22T05:55:04.975Z,77.03
2018-02-22T05:57:32.859Z,86.33
2018-02-22T06:00:00.579Z,69.93
2018-02-22T06:02:28.309Z,86.67
2018-02-22T06:04:56.064Z,97.67
2018-02-22T06:07:23.763Z,82.40
2018-02-22T06:09:51.341Z,77.13
2018-02-22T06:12:19.017Z,70.27
2018-02-22T06:14:46.689Z,81.93
2018-02-22T06:17:14.361Z,73.03
2018-02-22T06:19:42.246Z,85.43
2018-02-22T06:22:09.905Z,75.47
2018-02-22T06:24:37.598Z,95.87
2018-02-22T06:27:05.375Z,86.07
2018-02-22T06:29:33.150Z,80.20
2018-02-22T06:32:01.032Z,88.57
2018-02-22T06:34:28.810Z,83.77
2018-02-22T06:36:56.587Z,91.87
2018-02-22T06:39:24.255Z,84.10
2018-02-22T06:41:52.144Z,86.20
2018-02-22T06:44:19.818Z,81.90
2018-02-22T06:46:47.482Z,81.33
2018-02-22T06:49:15.170Z,69.10
2018-02-22T06:51:42.926Z,77.63
2018-02-22T06:54:10.723Z,88.47
2018-02-22T06:56:38.506Z,78.70
2018-02-22T06:59:06.282Z,52.43
2018-02-22T07:01:34.062Z,87.67
2018-02-22T07:04:01.713Z,70.97
2018-02-22T07:06:29.402Z,76.27
2018-02-22T07:08:57.145Z,86.30
2018-02-22T07:11:24.797Z,85.17
2018-02-22T07:13:52.496Z,75.67
2018-02-22T07:16:20.323Z,82.00
2018-02-22T07:18:48.197Z,69.93
2018-02-22T07:21:15.942Z,82.10
2018-02-22T07:23:43.542Z,106.33
2018-02-22T07:26:11.216Z,83.27
2018-02-22T07:28:39.102Z,88.97
2018-02-22T07:31:06.702Z,83.20
2018-02-22T07:33:34.456Z,50.07
2018-02-22T07:36:02.235Z,69.63
2018-02-22T07:38:30.007Z,86.87
2018-02-22T07:40:57.747Z,78.77
2018-02-22T07:43:25.350Z,61.07
2018-02-22T07:45:53.144Z,85.07
2018-02-22T07:48:20.876Z,74.93
2018-02-22T07:50:48.769Z,93.87
2018-02-22T07:53:16.575Z,65.80
2018-02-22T07:55:44.352Z,25.90
2018-02-22T07:58:12.021Z,64.10
2018-02-22T08:00:39.703Z,93.10
2018-02-22T08:03:07.478Z,52.30
2018-02-22T08:05:35.240Z,36.60
2018-02-22T08:08:02.998Z,71.43
2018-02-22T08:10:30.659Z,58.13
2018-02-22T08:12:58.240Z,74.13
2018-02-22T08:15:28.770Z,79.13
2018-02-22T08:17:56.814Z,72.97
2018-02-22T08:20:25.250Z,77.90
2018-02-22T08:22:52.982Z,75.93
2018-02-22T08:25:20.763Z,67.97
2018-02-22T08:27:48.354Z,44.27
2018-02-22T08:30:15.950Z,55.17
2018-02-22T08:32:43.603Z,56.67
2018-02-22T08:35:11.357Z,50.90
2018-02-22T08:37:39.093Z,66.10
2018-02-22T08:40:07.121Z,52.07
2018-02-22T08:42:34.999Z,61.83
2018-02-22T08:45:02.877Z,58.53
2018-02-22T08:47:30.611Z,61.57
2018-02-22T08:49:58.426Z,48.80
2018-02-22T08:52:26.218Z,60.70
2018-02-22T08:54:53.936Z,44.20
2018-02-22T08:57:21.772Z,53.53
2018-02-22T08:59:49.548Z,48.33
2018-02-22T09:02:17.136Z,65.03
2018-02-22T09:04:44.998Z,46.40
2018-02-22T09:07:12.781Z,47.87
2018-02-22T09:09:40.659Z,60.07
2018-02-22T09:12:08.396Z,70.20
2018-02-22T09:14:36.215Z,60.30
2018-02-22T09:17:04.093Z,67.90
2018-02-22T09:19:31.825Z,52.83
2018-02-22T09:21:59.516Z,56.57
2018-02-22T09:24:27.292Z,48.93
2018-02-22T09:26:55.104Z,43.03
2018-02-22T09:29:22.839Z,46.40
2018-02-22T09:31:50.560Z,62.40
2018-02-22T09:34:18.274Z,57.50
2018-02-22T09:36:45.991Z,60.13
2018-02-22T09:39:13.634Z,46.40
2018-02-22T09:41:41.261Z,49.40
2018-02-22T09:44:09.035Z,49.17
2018-02-22T09:46:36.956Z,58.90
2018-02-22T09:49:04.693Z,66.67
2018-02-22T09:51:32.795Z,53.73
2018-02-22T09:54:00.502Z,48.03
2018-02-22T09:56:28.241Z,69.20
2018-02-22T09:58:55.892Z,48.83
2018-02-22T10:01:23.650Z,51.77
2018-02-22T10:03:51.470Z,47.70
2018-02-22T10:06:19.188Z,63.93
2018-02-22T10:08:46.915Z,41.60
2018-02-22T10:11:14.586Z,48.40
2018-02-22T10:13:42.368Z,71.40
2018-02-22T10:16:10.249Z,50.33
2018-02-22T10:18:37.843Z,71.80
2018-02-22T10:21:05.678Z,55.43
2018-02-22T10:23:33.482Z,48.60
2018-02-22T10:26:01.265Z,54.87
2018-02-22T10:28:28.927Z,55.40
2018-02-22T10:30:56.713Z,58.20
2018-02-22T10:33:24.481Z,47.53
2018-02-22T10:35:52.229Z,39.90
2018-02-22T10:38:19.941Z,46.33
2018-02-22T10:40:47.723Z,54.30
2018-02-22T10:43:15.318Z,40.33
2018-02-22T10:45:43.172Z,50.00
2018-02-22T10:48:10.951Z,42.07
2018-02-22T10:50:38.781Z,48.87
2018-02-22T10:53:06.512Z,39.23
2018-02-22T10:55:34.094Z,53.47
2018-02-22T10:58:01.860Z,39.53
2018-02-22T11:00:35.268Z,49.70
2018-02-22T11:03:03.052Z,43.73
2018-02-22T11:05:30.777Z,31.43
2018-02-22T11:07:58.501Z,30.90
2018-02-22T11:10:26.381Z,47.60
2018-02-22T11:12:53.974Z,24.03
2018-02-22T11:15:22.189Z,17.70
2018-02-22T11:17:50.022Z,37.03
2018-02-22T11:20:17.800Z,32.70
2018-02-22T11:22:45.580Z,29.10
2018-02-22T11:25:13.458Z,22.73
2018-02-22T11:27:41.037Z,29.23
2018-02-22T11:30:08.806Z,26.03
2018-02-22T11:32:36.583Z,29.00
2018-02-22T11:35:04.238Z,27.97
2018-02-22T11:37:32.042Z,31.50
2018-02-22T11:39:59.822Z,27.50
2018-02-22T11:42:27.573Z,30.43
2018-02-22T11:44:55.364Z,30.37
2018-02-22T11:47:23.153Z,29.23
2018-02-22T11:49:50.929Z,39.10
2018-02-22T11:52:18.662Z,21.67
2018-02-22T11:54:46.381Z,28.50
2018-02-22T11:57:14.162Z,29.17
2018-02-22T11:59:41.986Z,29.40
2018-02-22T12:02:09.677Z,39.30
2018-02-22T12:04:37.498Z,32.43
2018-02-22T12:07:05.156Z,24.77
2018-02-22T12:09:32.727Z,34.63
2018-02-22T12:12:00.315Z,34.50
2018-02-22T12:14:27.972Z,32.83
2018-02-22T12:16:55.767Z,32.30
2018-02-22T12:19:23.543Z,27.53
2018-02-22T12:21:51.631Z,31.93
2018-02-22T12:24:19.381Z,30.60
2018-02-22T12:26:47.186Z,33.13
2018-02-22T12:29:15.070Z,34.53
2018-02-22T12:31:42.736Z,29.53
2018-02-22T12:34:10.467Z,22.67
2018-02-22T12:36:38.120Z,26.70
2018-02-22T12:39:05.758Z,24.23
2018-02-22T12:41:33.512Z,31.93
2018-02-22T12:44:01.367Z,31.23
2018-02-22T12:46:29.106Z,34.43
2018-02-22T12:48:56.881Z,31.27
2018-02-22T12:51:24.658Z,25.87
2018-02-22T12:53:52.444Z,23.33
2018-02-22T12:56:20.267Z,34.80
2018-02-22T12:58:47.841Z,20.50
2018-02-22T13:01:15.445Z,14.10
2018-02-22T13:03:43.140Z,35.53
2018-02-22T13:06:11.016Z,23.30
2018-02-22T13:08:38.742Z,31.43
2018-02-22T13:11:06.434Z,30.60
2018-02-22T13:13:34.053Z,37.87
2018-02-22T13:16:01.828Z,31.33
2018-02-22T13:18:29.600Z,33.50
2018-02-22T13:20:57.380Z,37.37
2018-02-22T13:23:25.160Z,27.87
2018-02-22T13:25:52.816Z,27.77
2018-02-22T13:28:20.612Z,35.50
2018-02-22T13:30:48.385Z,29.17
2018-02-22T13:33:28.044Z,24.87
2018-02-22T13:35:55.826Z,36.80
2018-02-22T13:38:35.261Z,21.07
2018-02-22T13:41:03.051Z,36.83
2018-02-22T13:43:30.796Z,37.67
2018-02-22T13:45:58.501Z,24.07
2018-02-22T13:51:27.026Z,32.57
2018-02-22T13:53:54.783Z,31.43
2018-02-22T13:56:34.222Z,38.20
2018-02-22T13:59:01.841Z,33.70
2018-02-22T14:01:41.501Z,28.10
2018-02-22T14:04:09.276Z,19.63
2018-02-22T14:06:36.897Z,35.37
2018-02-22T14:09:04.831Z,35.20
2018-02-22T14:11:32.606Z,37.77
2018-02-22T14:14:00.194Z,36.93
2018-02-22T14:16:28.062Z,17.57
2018-02-22T14:18:55.840Z,34.97
2018-02-22T14:21:23.428Z,35.80
2018-02-22T14:23:51.291Z,46.40
2018-02-22T14:26:18.971Z,21.77
2018-02-22T14:28:46.725Z,33.33
2018-02-22T14:31:14.512Z,34.43
2018-02-22T14:33:42.311Z,43.13
2018-02-22T14:36:10.084Z,44.50
2018-02-22T14:38:39.600Z,39.33
2018-02-22T14:41:07.276Z,38.13
2018-02-22T14:43:34.872Z,36.57
2018-02-22T14:46:02.731Z,40.33
2018-02-22T14:48:30.510Z,39.23
2018-02-22T14:50:58.098Z,29.57
2018-02-22T14:53:25.750Z,42.60
2018-02-22T14:55:53.420Z,40.10
2018-02-22T14:58:21.205Z,34.87
2018-02-22T15:00:54.362Z,41.77
2018-02-22T15:03:22.191Z,30.10
2018-02-22T15:05:50.022Z,46.50
2018-02-22T15:08:17.746Z,37.30
2018-02-22T15:10:45.421Z,38.60
2018-02-22T15:13:13.081Z,40.53
2018-02-22T15:15:40.876Z,49.93
2018-02-22T15:18:08.600Z,37.87
2018-02-22T15:20:36.236Z,28.43
2018-02-22T15:23:03.906Z,39.47
2018-02-22T15:25:31.493Z,45.20
2018-02-22T15:27:59.240Z,41.43
2018-02-22T15:30:27.031Z,45.80
2018-02-22T15:32:54.702Z,43.50
2018-02-22T15:35:22.345Z,41.57
2018-02-22T15:37:49.933Z,36.13
2018-02-22T15:40:17.510Z,31.57
2018-02-22T15:42:45.315Z,34.00
2018-02-22T15:45:12.896Z,38.13
2018-02-22T15:47:40.758Z,23.67
2018-02-22T15:50:08.638Z,39.20
2018-02-22T15:52:36.312Z,23.27
2018-02-22T15:55:04.190Z,37.73
2018-02-22T15:57:31.965Z,30.93
2018-02-22T15:59:59.564Z,27.67
2018-02-22T16:02:27.320Z,42.53
2018-02-22T16:04:55.096Z,39.40
2018-02-22T16:07:22.684Z,36.83
2018-02-22T16:09:50.332Z,50.00
2018-02-22T16:12:18.014Z,28.90
2018-02-22T16:14:45.797Z,27.57
2018-02-22T16:17:13.543Z,35.13
2018-02-22T16:19:41.236Z,29.37
2018-02-22T16:22:09.032Z,37.83
2018-02-22T16:24:36.700Z,25.40
2018-02-22T16:27:04.377Z,43.70
2018-02-22T16:29:32.056Z,29.20
2018-02-22T16:31:59.796Z,44.17
2018-02-22T16:34:27.499Z,28.33
2018-02-22T16:36:55.289Z,39.77
2018-02-22T16:39:23.171Z,32.77
2018-02-22T16:41:50.833Z,44.90
2018-02-22T16:44:18.622Z,37.37
2018-02-22T16:46:46.389Z,41.00
2018-02-22T16:49:14.180Z,45.10
2018-02-22T16:51:41.862Z,39.60
2018-02-22T16:54:09.517Z,44.63
2018-02-22T16:56:37.302Z,42.53
2018-02-22T16:59:04.889Z,46.93
2018-02-22T17:01:32.758Z,48.33
2018-02-22T17:04:00.349Z,47.17
2018-02-22T17:06:28.114Z,49.37
2018-02-22T17:08:55.993Z,42.27
2018-02-22T17:11:23.776Z,55.63
2018-02-22T17:13:51.383Z,65.50
2018-02-22T17:16:19.306Z,54.30
2018-02-22T17:18:47.104Z,61.27
2018-02-22T17:21:14.880Z,58.20
2018-02-22T17:23:42.471Z,61.23
2018-02-22T17:26:15.688Z,76.37
2018-02-22T17:28:48.971Z,63.33
2018-02-22T17:31:22.367Z,90.97
2018-02-22T17:33:50.157Z,62.77
2018-02-22T17:36:19.244Z,51.57
2018-02-22T17:38:49.385Z,49.23
2018-02-22T17:41:18.711Z,51.00
2018-02-22T17:43:46.593Z,58.20
2018-02-22T17:46:14.232Z,49.93
2018-02-22T17:48:42.033Z,54.70
2018-02-22T17:51:09.825Z,59.87
2018-02-22T17:53:37.600Z,48.53
2018-02-22T17:56:05.570Z,29.03
2018-02-22T17:58:33.257Z,41.87
2018-02-22T18:01:01.140Z,53.70
2018-02-22T18:03:29.017Z,54.03
2018-02-22T18:05:56.804Z,51.13
2018-02-22T18:08:24.561Z,52.77
2018-02-22T18:10:52.249Z,50.37
2018-02-22T18:13:19.911Z,54.77
2018-02-22T18:15:47.590Z,35.80
2018-02-22T18:18:15.378Z,36.77
2018-02-22T18:20:43.671Z,59.97
2018-02-22T18:23:11.550Z,37.93
2018-02-22T18:25:39.331Z,48.10
2018-02-22T18:28:07.279Z,49.00
2018-02-22T18:30:35.085Z,21.83
2018-02-22T18:33:02.867Z,33.87
2018-02-22T18:35:30.711Z,56.63
2018-02-22T18:38:00.124Z,44.97
2018-02-22T18:40:33.451Z,50.00
2018-02-22T18:43:01.142Z,45.33
2018-02-22T18:45:28.977Z,58.47
2018-02-22T18:47:56.929Z,51.90
2018-02-22T18:50:24.539Z,66.67
2018-02-22T18:52:52.241Z,39.30
2018-02-22T18:55:19.825Z,60.40
2018-02-22T18:57:47.609Z,52.87
2018-02-22T19:00:15.445Z,60.37
2018-02-22T19:02:43.274Z,43.33
2018-02-22T19:05:11.002Z,67.77
2018-02-22T19:07:38.729Z,67.00
2018-02-22T19:10:06.502Z,71.47
2018-02-22T19:12:34.106Z,42.10
2018-02-22T19:15:02.056Z,63.70
2018-02-22T19:17:29.786Z,68.87
2018-02-22T19:19:57.607Z,71.73
2018-02-22T19:22:25.489Z,65.70
2018-02-22T19:24:53.270Z,74.53
2018-02-22T19:27:21.026Z,64.67
2018-02-22T19:29:48.816Z,50.43
2018-02-22T19:32:16.605Z,67.13
2018-02-22T19:34:44.386Z,67.90
2018-02-22T19:37:11.972Z,82.13
2018-02-22T19:39:39.724Z,76.03
2018-02-22T19:42:07.473Z,67.40
2018-02-22T19:44:35.285Z,46.70
2018-02-22T19:47:03.067Z,36.07
2018-02-22T19:49:30.849Z,55.87
2018-02-22T19:51:58.516Z,82.97
2018-02-22T19:54:26.252Z,70.27
2018-02-22T19:56:54.074Z,53.23
2018-02-22T19:59:21.851Z,73.47
2018-02-22T20:01:50.757Z,79.60
2018-02-22T20:04:18.636Z,73.23
2018-02-22T20:06:46.515Z,84.27
2018-02-22T20:09:14.195Z,83.87
2018-02-22T20:11:41.954Z,78.53
2018-02-22T20:14:09.635Z,64.37
2018-02-22T20:16:37.320Z,90.53
2018-02-22T20:19:05.093Z,78.30
2018-02-22T20:21:32.749Z,78.03
2018-02-22T20:24:00.614Z,85.90
2018-02-22T20:26:28.327Z,72.30
2018-02-22T20:28:55.999Z,87.93
2018-02-22T20:31:23.671Z,70.43
2018-02-22T20:33:51.357Z,76.23
2018-02-22T20:36:19.042Z,74.17
2018-02-22T20:38:46.706Z,40.53
2018-02-22T20:41:14.486Z,66.50
2018-02-22T20:43:42.163Z,77.90
2018-02-22T20:46:09.767Z,37.60
2018-02-22T20:48:37.616Z,73.80
2018-02-22T20:51:07.343Z,85.10
2018-02-22T20:53:35.827Z,71.07
2018-02-22T20:56:03.619Z,75.73
2018-02-22T20:58:34.150Z,111.63
2018-02-22T21:01:01.996Z,97.97
2018-02-22T21:03:29.702Z,81.73
2018-02-22T21:05:57.330Z,71.50
2018-02-22T21:08:25.095Z,74.37
2018-02-22T21:10:52.844Z,55.63
2018-02-22T21:13:20.616Z,63.20
2018-02-22T21:15:48.393Z,63.57
2018-02-22T21:18:16.135Z,83.57
2018-02-22T21:20:43.946Z,75.60
2018-02-22T21:23:11.828Z,74.43
2018-02-22T21:25:39.588Z,70.73
2018-02-22T21:28:07.284Z,91.17
2018-02-22T21:30:35.060Z,73.30
2018-02-22T21:33:02.837Z,61.63
2018-02-22T21:35:30.551Z,74.33
2018-02-22T21:37:58.289Z,95.83
2018-02-22T21:40:25.949Z,76.03
2018-02-22T21:42:53.701Z,83.90
2018-02-22T21:45:21.523Z,86.80
2018-02-22T21:47:49.403Z,87.07
2018-02-22T21:50:16.997Z,80.60
2018-02-22T21:52:44.737Z,84.27
2018-02-22T21:55:12.533Z,77.47
2018-02-22T21:57:40.271Z,80.97
2018-02-22T22:00:08.164Z,87.67
2018-02-22T22:02:35.965Z,92.97
2018-02-22T22:05:03.633Z,88.70
2018-02-22T22:07:31.385Z,82.67
2018-02-22T22:09:59.201Z,112.20
2018-02-22T22:12:26.965Z,142.27
2018-02-22T22:14:54.757Z,128.33
2018-02-22T22:17:22.361Z,88.83
2018-02-22T22:19:50.017Z,95.60
2018-02-22T22:22:17.777Z,65.23
2018-02-22T22:24:46.481Z,79.20
2018-02-22T22:27:14.259Z,112.20
2018-02-22T22:29:41.839Z,132.00
2018-02-22T22:32:09.571Z,107.00
2018-02-22T22:34:37.259Z,115.47
2018-02-22T22:37:04.911Z,104.60
2018-02-22T22:39:32.525Z,98.33
2018-02-22T22:42:00.201Z,111.53
2018-02-22T22:44:28.184Z,86.43
2018-02-22T22:46:55.963Z,91.40
2018-02-22T22:49:23.553Z,83.97
2018-02-22T22:51:51.165Z,115.53
2018-02-22T22:54:18.989Z,125.50
2018-02-22T22:56:46.623Z,77.43
2018-02-22T22:59:14.208Z,125.43
2018-02-22T23:01:42.015Z,133.67
2018-02-22T23:04:09.639Z,120.53
2018-02-22T23:06:37.362Z,111.77
2018-02-22T23:09:05.244Z,105.33
2018-02-22T23:11:32.920Z,128.67
2018-02-22T23:14:00.698Z,98.07
2018-02-22T23:16:28.296Z,104.83
2018-02-22T23:18:55.954Z,104.10
2018-02-22T23:21:23.537Z,104.70
2018-02-22T23:23:51.138Z,137.17
2018-02-22T23:26:18.903Z,131.43
2018-02-22T23:28:46.545Z,112.63
2018-02-22T23:31:14.180Z,130.20
2018-02-22T23:33:41.864Z,89.93
2018-02-22T23:36:09.592Z,137.20
2018-02-22T23:38:37.217Z,139.47
2018-02-22T23:44:12.329Z,132.27
2018-02-22T23:46:40.068Z,135.67
2018-02-22T23:49:07.883Z,156.97
2018-02-22T23:51:35.625Z,147.63
2018-02-22T23:54:03.548Z,144.97
2018-02-22T23:56:31.249Z,142.77
2018-02-22T23:58:58.998Z,137.27
